Time;durP1;ratioP1;P1;durP2;ratioP2;P2;SDS_P1;SDS_P2;PMS_P1;PMS_P2;Temp;Humidity;BMP_temperature;BMP_pressure;BME280_temperature;BME280_humidity;BME280_pressure;Samples;Min_cycle;Max_cycle;Signal;HPM_P1;HPM_P2
2022/10/13 00:03:17;;;;;;;18.48;10.70;;;;;;;10.16;100.00;101665.59;10544658;28;20418;-71
2022/10/13 00:08:20;;;;;;;20.95;11.80;;;;;;;10.13;100.00;101659.63;10544589;28;20074;-71
2022/10/13 00:13:22;;;;;;;17.83;11.40;;;;;;;10.12;100.00;101655.28;10541762;28;20066;-73
2022/10/13 00:18:22;;;;;;;20.73;11.30;;;;;;;10.13;100.00;101649.19;10543920;28;20034;-73
2022/10/13 00:23:24;;;;;;;20.30;12.60;;;;;;;10.10;100.00;101636.22;10543829;28;20111;-71
2022/10/13 00:28:24;;;;;;;21.67;11.38;;;;;;;10.09;100.00;101639.75;10543486;28;20748;-73
2022/10/13 00:33:25;;;;;;;19.45;12.00;;;;;;;9.98;100.00;101638.25;10543495;28;20047;-70
2022/10/13 00:38:26;;;;;;;22.35;11.30;;;;;;;9.95;100.00;101640.13;10543492;28;20043;-71
2022/10/13 00:43:56;;;;;;;23.97;11.47;;;;;;;10.02;100.00;101626.84;10540701;28;20024;-71
2022/10/13 00:49:13;;;;;;;18.80;10.93;;;;;;;10.00;100.00;101628.66;10542282;28;20282;-69
2022/10/13 00:54:20;;;;;;;23.27;11.90;;;;;;;10.00;100.00;101631.28;10542594;28;20032;-71
2022/10/13 00:59:27;;;;;;;19.33;10.43;;;;;;;10.10;100.00;101631.00;10542501;28;20063;-72
2022/10/13 01:04:36;;;;;;;17.95;10.35;;;;;;;10.12;100.00;101631.81;10542366;28;20417;-73
2022/10/13 01:09:37;;;;;;;20.98;11.20;;;;;;;10.16;100.00;101623.00;10542003;28;20049;-73
2022/10/13 01:15:10;;;;;;;18.53;10.60;;;;;;;10.16;100.00;101629.06;10539805;28;20455;-74
2022/10/13 01:20:42;;;;;;;20.35;10.50;;;;;;;10.12;100.00;101626.59;10532123;28;20340;-72
2022/10/13 01:26:26;;;;;;;18.10;10.88;;;;;;;10.12;100.00;101613.53;10541405;28;20830;-74
2022/10/13 01:31:50;;;;;;;22.42;10.85;;;;;;;10.09;100.00;101624.09;10540991;28;20036;-71
2022/10/13 01:37:30;;;;;;;18.95;10.55;;;;;;;10.14;100.00;101625.66;10540745;28;20036;-74
2022/10/13 01:43:07;;;;;;;17.88;10.90;;;;;;;10.27;100.00;101615.72;10499576;28;20529;-73
2022/10/13 01:48:10;;;;;;;22.55;10.48;;;;;;;10.30;100.00;101610.41;10540269;28;20113;-71
2022/10/13 01:53:13;;;;;;;17.55;10.77;;;;;;;10.36;100.00;101598.09;10540356;28;20028;-73
2022/10/13 01:58:14;;;;;;;20.67;11.73;;;;;;;10.50;100.00;101597.75;10539157;28;20028;-70
2022/10/13 02:03:30;;;;;;;17.77;11.00;;;;;;;10.46;100.00;101590.88;10540055;28;20471;-73
2022/10/13 02:08:38;;;;;;;24.23;10.57;;;;;;;10.48;100.00;101579.50;10539824;28;20031;-72
2022/10/13 02:14:08;;;;;;;17.67;9.93;;;;;;;10.60;100.00;101578.25;10537174;28;20036;-71
2022/10/13 02:19:16;;;;;;;18.23;10.48;;;;;;;10.65;100.00;101580.75;10539320;28;20027;-71
2022/10/13 02:24:16;;;;;;;17.02;9.88;;;;;;;10.71;100.00;101570.09;10538895;28;20089;-74
2022/10/13 02:29:17;;;;;;;18.90;10.23;;;;;;;10.73;100.00;101564.81;10539277;28;20024;-72
2022/10/13 02:34:18;;;;;;;16.90;10.60;;;;;;;10.78;100.00;101560.34;10538836;28;20032;-71
2022/10/13 02:39:18;;;;;;;20.53;11.37;;;;;;;10.78;100.00;101561.16;10538330;28;20596;-74
2022/10/13 02:44:20;;;;;;;20.70;10.68;;;;;;;10.72;100.00;101558.78;10536549;28;20630;-70
2022/10/13 02:49:20;;;;;;;21.83;10.63;;;;;;;10.68;100.00;101558.00;10538421;28;20054;-72
2022/10/13 02:54:22;;;;;;;26.67;10.32;;;;;;;10.75;100.00;101556.06;10538159;28;20076;-72
2022/10/13 02:59:22;;;;;;;19.63;11.25;;;;;;;10.81;100.00;101550.63;10537975;28;20371;-72
2022/10/13 03:04:22;;;;;;;21.63;10.37;;;;;;;10.84;100.00;101546.22;10538210;28;20032;-71
2022/10/13 03:09:23;;;;;;;23.77;11.03;;;;;;;10.80;100.00;101548.06;10537699;28;20315;-71
2022/10/13 03:14:25;;;;;;;23.92;10.82;;;;;;;10.73;100.00;101542.19;10535652;28;20376;-73
2022/10/13 03:19:25;;;;;;;21.38;11.00;;;;;;;10.75;100.00;101534.31;10537527;28;20108;-71
2022/10/13 03:24:27;;;;;;;17.48;10.38;;;;;;;10.81;100.00;101529.75;10537375;28;20145;-74
2022/10/13 03:29:27;;;;;;;22.13;10.73;;;;;;;10.75;100.00;101534.31;10519282;28;20028;-72
2022/10/13 03:34:28;;;;;;;19.35;10.93;;;;;;;10.68;100.00;101531.06;10537396;28;20027;-74
2022/10/13 03:39:28;;;;;;;20.80;11.38;;;;;;;10.60;100.00;101528.69;10536944;28;20071;-72
2022/10/13 03:44:30;;;;;;;19.48;10.63;;;;;;;10.65;100.00;101531.16;10535192;28;20484;-73
2022/10/13 03:49:30;;;;;;;16.98;9.82;;;;;;;10.73;100.00;101521.31;10537062;28;20097;-72
2022/10/13 03:54:32;;;;;;;16.80;10.32;;;;;;;10.80;100.00;101519.34;10537038;28;20445;-71
2022/10/13 03:59:32;;;;;;;20.73;10.30;;;;;;;10.79;100.00;101509.81;10536976;28;20503;-72
2022/10/13 04:04:35;;;;;;;20.35;10.45;;;;;;;10.79;100.00;101508.06;10536788;28;20028;-71
2022/10/13 04:09:36;;;;;;;18.73;10.68;;;;;;;10.79;100.00;101502.84;10536716;28;20020;-71
2022/10/13 04:14:38;;;;;;;18.45;10.43;;;;;;;10.84;100.00;101497.47;10534526;28;20042;-71
2022/10/13 04:19:38;;;;;;;14.68;10.25;;;;;;;10.79;100.00;101500.25;10537324;28;20024;-76
2022/10/13 04:24:38;;;;;;;19.33;10.95;;;;;;;10.84;100.00;101504.47;10543856;28;20035;-70
2022/10/13 04:29:39;;;;;;;17.33;9.73;;;;;;;10.84;100.00;101483.56;10543751;28;20035;-71
2022/10/13 04:34:39;;;;;;;20.38;10.30;;;;;;;10.90;100.00;101476.38;10543450;28;20484;-72
2022/10/13 04:39:39;;;;;;;19.58;10.02;;;;;;;10.92;100.00;101473.72;10543054;28;20052;-73
2022/10/13 04:44:40;;;;;;;17.05;10.18;;;;;;;10.90;100.00;101483.34;10541111;28;20043;-71
2022/10/13 04:49:42;;;;;;;18.88;10.77;;;;;;;10.87;100.00;101475.59;10542899;28;20044;-72
2022/10/13 04:54:42;;;;;;;17.30;10.75;;;;;;;10.85;100.00;101473.06;10542563;28;20040;-73
2022/10/13 04:59:44;;;;;;;17.88;10.43;;;;;;;10.87;100.00;101483.44;10542145;28;20032;-71
2022/10/13 05:04:44;;;;;;;15.27;10.80;;;;;;;10.88;100.00;101461.66;10541915;28;20378;-69
2022/10/13 05:09:45;;;;;;;18.45;10.90;;;;;;;10.81;100.00;101467.09;10538001;28;20038;-71
2022/10/13 05:14:46;;;;;;;17.88;11.05;;;;;;;10.76;100.00;101473.38;10537894;28;20383;-71
2022/10/13 05:19:48;;;;;;;19.70;10.70;;;;;;;10.84;100.00;101478.34;10539925;28;20065;-72
2022/10/13 05:24:48;;;;;;;;;;;;;;;10.87;100.00;101470.38;10522331;28;20124;-70
2022/10/13 05:29:50;;;;;;;17.73;11.45;;;;;;;10.85;100.00;101483.53;10539306;28;20406;-71
2022/10/13 05:34:50;;;;;;;24.77;11.23;;;;;;;10.87;100.00;101480.84;10539402;28;20038;-71
2022/10/13 05:39:52;;;;;;;28.33;12.52;;;;;;;10.79;100.00;101476.75;10539055;28;20044;-70
2022/10/13 05:44:53;;;;;;;23.27;11.70;;;;;;;10.77;100.00;101480.28;10536542;28;20040;-71
2022/10/13 05:49:54;;;;;;;23.40;12.25;;;;;;;10.73;100.00;101471.72;10539563;28;20411;-71
2022/10/13 05:55:00;;;;;;;19.45;11.65;;;;;;;10.76;100.00;101476.84;10540415;28;20115;-71
2022/10/13 06:00:08;;;;;;;24.90;11.73;;;;;;;10.76;100.00;101476.84;10539795;28;20043;-73
2022/10/13 06:05:16;;;;;;;20.50;12.35;;;;;;;10.77;100.00;101470.72;10539457;28;20476;-73
2022/10/13 06:10:18;;;;;;;27.17;12.27;;;;;;;10.77;100.00;101475.94;10539753;28;20190;-71
2022/10/13 06:15:19;;;;;;;22.40;11.73;;;;;;;10.82;100.00;101463.56;10537381;28;20040;-72
2022/10/13 06:20:19;;;;;;;21.47;12.83;;;;;;;10.88;100.00;101456.44;10538795;28;20679;-72
2022/10/13 06:25:19;;;;;;;23.13;12.17;;;;;;;10.88;100.00;101438.16;10536013;28;20802;-75
2022/10/13 06:30:20;;;;;;;21.92;12.68;;;;;;;10.88;100.00;101451.22;10525205;28;20282;-73
2022/10/13 06:35:23;;;;;;;27.23;13.40;;;;;;;10.90;100.00;101459.84;10535382;28;20023;-73
2022/10/13 06:40:23;;;;;;;21.75;12.73;;;;;;;10.92;100.00;101450.22;10535217;28;20309;-71
2022/10/13 06:45:24;;;;;;;27.98;14.38;;;;;;;10.98;100.00;101443.94;10512750;28;20468;-70
2022/10/13 06:50:24;;;;;;;22.35;13.80;;;;;;;11.01;100.00;101462.94;10494371;28;20024;-73
2022/10/13 06:55:25;;;;;;;26.42;14.57;;;;;;;11.06;100.00;101445.34;10494259;28;20369;-71
2022/10/13 07:00:27;;;;;;;25.42;12.85;;;;;;;11.16;100.00;101452.88;10475861;28;20447;-70
2022/10/13 07:05:27;;;;;;;26.55;13.60;;;;;;;11.22;100.00;101449.19;10494131;28;20472;-71
2022/10/13 07:10:27;;;;;;;23.80;13.82;;;;;;;11.23;100.00;101443.06;10494552;28;20108;-76
2022/10/13 07:15:29;;;;;;;23.27;13.43;;;;;;;11.23;100.00;101438.69;10492505;28;20464;-73
2022/10/13 07:20:29;;;;;;;24.65;13.40;;;;;;;11.28;100.00;101449.81;10495940;28;20998;-74
2022/10/13 07:25:31;;;;;;;29.65;13.43;;;;;;;11.33;100.00;101453.13;10511032;28;20032;-71
2022/10/13 07:30:31;;;;;;;23.50;12.20;;;;;;;11.40;100.00;101445.06;10512946;28;20042;-73
2022/10/13 07:35:32;;;;;;;26.45;12.98;;;;;;;11.46;100.00;101456.16;10536319;28;20040;-73
2022/10/13 07:40:32;;;;;;;23.10;11.70;;;;;;;11.57;100.00;101450.53;10524786;28;20048;-72
2022/10/13 07:45:34;;;;;;;25.25;12.77;;;;;;;11.64;100.00;101448.56;10493006;28;20039;-74
2022/10/13 07:50:35;;;;;;;;;;;;;;;11.53;100.00;101448.09;10496121;28;20107;-73
2022/10/13 07:55:37;;;;;;;20.88;12.05;;;;;;;11.61;100.00;101453.88;10479640;28;20043;-73
2022/10/13 08:00:37;;;;;;;26.27;12.32;;;;;;;11.84;100.00;101457.41;10502932;28;20071;-72
2022/10/13 08:05:39;;;;;;;23.13;12.88;;;;;;;12.01;100.00;101448.88;10502366;28;20432;-74
2022/10/13 08:10:39;;;;;;;25.10;13.32;;;;;;;12.02;100.00;101450.63;10502190;28;20063;-76
2022/10/13 08:15:43;;;;;;;20.27;12.13;;;;;;;11.97;100.00;101442.94;10500227;28;20077;-75
2022/10/13 08:20:45;;;;;;;22.65;12.52;;;;;;;12.02;100.00;101453.22;10502143;28;20052;-64
2022/10/13 08:25:46;;;;;;;24.30;12.77;;;;;;;12.19;100.00;101443.91;10501880;28;20540;-63
2022/10/13 08:30:49;;;;;;;24.63;12.82;;;;;;;12.50;100.00;101445.28;10501903;28;20426;-65
2022/10/13 08:35:50;;;;;;;29.75;13.10;;;;;;;12.71;100.00;101438.31;10501403;28;20120;-64
2022/10/13 08:40:51;;;;;;;23.27;12.18;;;;;;;12.80;100.00;101437.03;10501171;28;20044;-63
2022/10/13 08:45:58;;;;;;;21.80;12.30;;;;;;;12.89;100.00;101446.28;10498965;28;20043;-71
2022/10/13 08:51:05;;;;;;;21.17;12.32;;;;;;;12.81;100.00;101441.38;10501179;28;20043;-76
2022/10/13 08:56:19;;;;;;;20.50;12.15;;;;;;;12.73;100.00;101444.31;10519308;28;20032;-70
2022/10/13 09:01:34;;;;;;;19.90;12.80;;;;;;;12.90;100.00;101441.91;10541509;28;20059;-74
2022/10/13 09:06:45;;;;;;;23.42;12.13;;;;;;;12.92;100.00;101434.81;10541405;28;20020;-75
2022/10/13 09:11:49;;;;;;;22.80;12.13;;;;;;;13.06;100.00;101421.97;10535387;28;20072;-76
2022/10/13 09:16:52;;;;;;;23.83;12.82;;;;;;;12.99;100.00;101425.78;10497705;28;20346;-77
2022/10/13 09:22:13;;;;;;;19.27;11.77;;;;;;;12.85;100.00;101424.63;10499429;28;20032;-77
2022/10/13 09:27:16;;;;;;;22.13;13.10;;;;;;;12.74;100.00;101427.66;10536775;28;20044;-73
2022/10/13 09:32:24;;;;;;;21.17;12.85;;;;;;;12.78;100.00;101424.94;10540857;28;20040;-74
2022/10/13 09:37:25;;;;;;;22.60;12.13;;;;;;;12.68;100.00;101416.59;10540581;28;20035;-74
2022/10/13 09:42:30;;;;;;;21.57;11.43;;;;;;;12.96;100.00;101408.44;10539635;28;20394;-73
2022/10/13 09:47:32;;;;;;;19.08;11.02;;;;;;;13.01;100.00;101414.31;10538480;28;20510;-72
2022/10/13 09:52:33;;;;;;;18.27;10.80;;;;;;;13.03;100.00;101411.63;10478892;28;20067;-74
2022/10/13 09:57:50;;;;;;;17.97;11.07;;;;;;;12.81;100.00;101407.34;10534319;28;20115;-75
2022/10/13 10:03:02;;;;;;;14.80;10.02;;;;;;;12.79;100.00;101414.41;10539858;28;20039;-74
2022/10/13 10:08:55;;;;;;;19.25;10.95;;;;;;;12.66;100.00;101408.00;10539244;28;20027;-71
2022/10/13 10:13:57;;;;;;;16.35;10.07;;;;;;;12.47;100.00;101403.50;10514995;28;20079;-74
2022/10/13 10:19:50;;;;;;;15.75;11.05;;;;;;;12.53;100.00;101403.28;10536140;28;20418;-66
2022/10/13 10:25:08;;;;;;;20.17;10.30;;;;;;;12.40;100.00;101396.81;10522344;28;20051;-65
2022/10/13 10:30:16;;;;;;;17.00;10.15;;;;;;;12.31;100.00;101398.91;10537454;28;20034;-64
2022/10/13 10:35:35;;;;;;;15.30;10.30;;;;;;;12.26;100.00;101390.41;10537130;28;20036;-63
2022/10/13 10:41:53;;;;;;;23.45;10.30;;;;;;;12.44;100.00;101395.78;10536816;28;20048;-66
2022/10/13 10:47:01;;;;;;;17.60;9.57;;;;;;;12.52;100.00;101391.06;10364417;28;20068;-65
2022/10/13 10:52:13;;;;;;;13.90;10.02;;;;;;;12.63;100.00;101390.66;10503516;28;20120;-67
2022/10/13 10:57:46;;;;;;;15.97;10.40;;;;;;;12.66;100.00;101385.25;10537295;28;20028;-66
2022/10/13 11:03:27;;;;;;;17.70;9.55;;;;;;;12.69;100.00;101381.69;10536695;28;20583;-65
2022/10/13 11:08:37;;;;;;;16.17;9.43;;;;;;;12.77;100.00;101374.34;10508231;28;20044;-65
2022/10/13 11:14:09;;;;;;;14.38;9.55;;;;;;;12.92;100.00;101369.31;10534467;28;20074;-63
2022/10/13 11:19:33;;;;;;;18.88;9.25;;;;;;;13.00;100.00;101359.34;10480653;28;20097;-64
2022/10/13 11:24:34;;;;;;;13.77;8.52;;;;;;;12.97;100.00;101365.59;10536268;28;20459;-64
2022/10/13 11:29:56;;;;;;;14.82;9.25;;;;;;;12.98;100.00;101356.84;10537893;28;20447;-63
2022/10/13 11:35:09;;;;;;;14.70;9.18;;;;;;;12.94;100.00;101346.56;10544034;28;20036;-63
2022/10/13 11:40:32;;;;;;;17.13;8.60;;;;;;;12.93;100.00;101347.47;10543678;28;20044;-65
2022/10/13 11:45:50;;;;;;;15.05;8.80;;;;;;;12.95;100.00;101346.47;10541852;28;20028;-64
2022/10/13 11:51:14;;;;;;;11.13;8.40;;;;;;;13.03;100.00;101333.03;10543584;28;20514;-64
2022/10/13 11:56:32;;;;;;;11.30;7.82;;;;;;;13.08;100.00;101335.44;10543599;28;20036;-75
2022/10/13 12:01:33;;;;;;;14.57;8.57;;;;;;;12.96;100.00;101332.47;10543452;28;20123;-77
2022/10/13 12:06:34;;;;;;;15.37;8.80;;;;;;;12.90;100.00;101332.72;10543689;28;20110;-73
2022/10/13 12:11:37;;;;;;;18.13;9.33;;;;;;;12.76;100.00;101335.94;10543557;28;20425;-75
2022/10/13 12:16:55;;;;;;;15.07;8.80;;;;;;;12.78;100.00;101328.03;10540362;28;20425;-75
2022/10/13 12:21:59;;;;;;;18.73;8.48;;;;;;;12.77;100.00;101336.81;10542782;28;20039;-73
2022/10/13 12:27:16;;;;;;;12.45;8.70;;;;;;;12.69;100.00;101332.75;10542609;28;20506;-78
2022/10/13 12:32:24;;;;;;;13.63;8.77;;;;;;;12.69;100.00;101319.66;10524077;28;20024;-75
2022/10/13 12:37:32;;;;;;;18.05;10.32;;;;;;;12.62;100.00;101310.38;10541832;28;20087;-77
2022/10/13 12:42:36;;;;;;;17.27;10.30;;;;;;;12.57;100.00;101320.19;10541368;28;20495;-64
2022/10/13 12:47:47;;;;;;;18.38;10.35;;;;;;;12.58;100.00;101314.91;10538925;28;20394;-61
2022/10/13 12:53:02;;;;;;;21.52;11.55;;;;;;;12.57;100.00;101310.59;10540994;28;20055;-63
2022/10/13 12:58:03;;;;;;;17.35;10.98;;;;;;;12.53;100.00;101303.78;10522689;28;20036;-66
2022/10/13 13:03:06;;;;;;;14.53;10.83;;;;;;;12.57;100.00;101300.13;10540861;28;20024;-64
2022/10/13 13:08:25;;;;;;;16.67;10.05;;;;;;;12.64;100.00;101294.59;10541241;28;20028;-64
2022/10/13 13:13:27;;;;;;;20.52;10.75;;;;;;;12.82;100.00;101288.56;10538693;28;20043;-65
2022/10/13 13:18:40;;;;;;;20.27;11.48;;;;;;;12.84;100.00;101291.97;10540034;28;20028;-63
2022/10/13 13:23:45;;;;;;;15.23;10.23;;;;;;;12.84;100.00;101298.97;10539921;28;20028;-64
2022/10/13 13:28:49;;;;;;;17.63;10.75;;;;;;;12.70;100.00;101294.34;10532645;28;20042;-64
2022/10/13 13:33:50;;;;;;;15.70;9.95;;;;;;;12.68;100.00;101285.69;10507227;28;20070;-67
2022/10/13 13:38:53;;;;;;;20.30;11.33;;;;;;;12.79;100.00;101293.09;10519824;28;20527;-67
2022/10/13 13:43:53;;;;;;;19.55;10.43;;;;;;;12.78;100.00;101280.88;10494842;28;20035;-64
2022/10/13 13:48:53;;;;;;;15.53;10.60;;;;;;;12.80;100.00;101284.31;10496457;28;20330;-65
2022/10/13 13:53:55;;;;;;;17.00;10.68;;;;;;;12.82;100.00;101283.31;10497458;28;20395;-65
2022/10/13 13:58:56;;;;;;;12.52;8.85;;;;;;;12.88;100.00;101288.28;10496380;28;20032;-65
2022/10/13 14:03:58;;;;;;;17.80;9.90;;;;;;;12.91;100.00;101278.56;10523823;28;20040;-65
2022/10/13 14:08:58;;;;;;;14.07;9.32;;;;;;;12.90;100.00;101274.25;10540103;28;20085;-64
2022/10/13 14:14:00;;;;;;;15.83;10.57;;;;;;;13.00;100.00;101280.75;10535650;28;20130;-67
2022/10/13 14:19:01;;;;;;;;;;;;;;;12.98;100.00;101267.75;10538935;28;20065;-65
2022/10/13 14:24:03;;;;;;;14.45;10.30;;;;;;;13.12;100.00;101264.50;10537409;28;19908;-64
2022/10/13 14:29:03;;;;;;;;;;;;;;;13.09;100.00;101279.50;10535204;28;20059;-64
2022/10/13 14:34:03;;;;;;;16.90;11.18;;;;;;;13.07;100.00;101271.72;10537235;28;19943;-64
2022/10/13 14:39:04;;;;;;;17.87;12.63;;;;;;;13.16;100.00;101275.69;10534719;28;20046;-65
2022/10/13 14:44:05;;;;;;;21.27;12.73;;;;;;;13.11;100.00;101273.25;10533855;28;20046;-63
2022/10/13 14:49:05;;;;;;;19.47;13.33;;;;;;;13.18;100.00;101275.59;10536722;28;20049;-63
2022/10/13 14:54:05;;;;;;;18.13;13.40;;;;;;;13.14;100.00;101267.88;10536828;28;20051;-65
2022/10/13 14:59:06;;;;;;;18.77;14.33;;;;;;;13.18;100.00;101267.75;10532333;28;20034;-66
2022/10/13 15:04:08;;;;;;;20.00;13.63;;;;;;;13.16;100.00;101259.09;10494121;28;20488;-65
2022/10/13 15:09:09;;;;;;;21.30;13.53;;;;;;;13.20;100.00;101256.28;10507728;28;20487;-64
2022/10/13 15:14:10;;;;;;;21.57;14.60;;;;;;;13.18;100.00;101249.41;10515618;28;20034;-62
2022/10/13 15:19:11;;;;;;;30.10;15.70;;;;;;;13.26;100.00;101249.88;10534836;28;20024;-63
2022/10/13 15:24:11;;;;;;;22.87;13.70;;;;;;;13.12;100.00;101251.41;10535795;28;20472;-63
2022/10/13 15:29:11;;;;;;;25.07;15.77;;;;;;;13.20;100.00;101250.16;10523974;28;20028;-65
2022/10/13 15:34:12;;;;;;;18.90;13.37;;;;;;;13.17;100.00;101255.56;10493889;28;20162;-64
2022/10/13 15:39:12;;;;;;;20.57;13.43;;;;;;;13.19;100.00;101245.84;10491247;28;20040;-63
2022/10/13 15:44:15;;;;;;;19.63;13.97;;;;;;;13.14;100.00;101246.09;10473430;28;20078;-64
2022/10/13 15:49:16;;;;;;;20.00;13.18;;;;;;;13.07;100.00;101245.50;10494923;28;20023;-63
2022/10/13 15:54:19;;;;;;;22.30;12.27;;;;;;;13.01;100.00;101245.81;10493749;28;20143;-64
2022/10/13 15:59:19;;;;;;;16.48;11.48;;;;;;;12.97;100.00;101250.31;10493056;28;20036;-68
2022/10/13 16:04:19;;;;;;;17.13;12.73;;;;;;;12.91;100.00;101244.53;10493060;28;20024;-63
2022/10/13 16:09:20;;;;;;;23.47;13.93;;;;;;;12.90;100.00;101241.03;10493115;28;20047;-63
2022/10/13 16:14:21;;;;;;;18.57;12.93;;;;;;;12.85;100.00;101241.28;10490678;28;20093;-64
2022/10/13 16:19:22;;;;;;;19.15;13.15;;;;;;;12.73;100.00;101241.84;10504099;28;20070;-63
2022/10/13 16:24:22;;;;;;;22.63;13.47;;;;;;;12.74;100.00;101238.28;10542316;28;20045;-63
2022/10/13 16:29:22;;;;;;;19.73;13.00;;;;;;;12.71;100.00;101233.19;10539856;28;20052;-62
2022/10/13 16:34:23;;;;;;;21.47;14.40;;;;;;;12.67;100.00;101244.72;10541694;28;20035;-61
2022/10/13 16:39:25;;;;;;;19.92;13.52;;;;;;;12.65;100.00;101246.53;10541416;28;20044;-64
2022/10/13 16:44:25;;;;;;;20.27;13.45;;;;;;;12.59;100.00;101238.06;10538897;28;20027;-64
2022/10/13 16:49:26;;;;;;;19.03;13.63;;;;;;;12.58;100.00;101238.97;10540309;28;20403;-63
2022/10/13 16:54:26;;;;;;;23.70;14.00;;;;;;;12.57;100.00;101252.13;10540699;28;20046;-61
2022/10/13 16:59:28;;;;;;;17.23;13.10;;;;;;;12.55;100.00;101246.97;10540691;28;20116;-65
2022/10/13 17:04:29;;;;;;;17.30;13.35;;;;;;;12.54;100.00;101253.13;10540399;28;20570;-67
2022/10/13 17:09:30;;;;;;;18.73;13.88;;;;;;;12.52;100.00;101254.94;10540202;28;20498;-64
2022/10/13 17:14:30;;;;;;;21.97;14.57;;;;;;;12.53;100.00;101272.38;10537772;28;20111;-64
2022/10/13 17:19:31;;;;;;;28.43;14.90;;;;;;;12.50;100.00;101272.50;10533462;28;20043;-63
2022/10/13 17:24:31;;;;;;;18.90;14.27;;;;;;;12.49;100.00;101270.81;10498243;28;20115;-63
2022/10/13 17:29:32;;;;;;;23.10;16.47;;;;;;;12.47;100.00;101272.63;10508008;28;20043;-63
2022/10/13 17:34:34;;;;;;;23.73;15.30;;;;;;;12.45;100.00;101277.06;10538697;28;20036;-62
2022/10/13 17:39:34;;;;;;;28.13;16.15;;;;;;;12.43;100.00;101281.53;10538867;28;20044;-64
2022/10/13 17:44:36;;;;;;;28.40;17.67;;;;;;;12.40;100.00;101281.66;10536011;28;20028;-65
2022/10/13 17:49:36;;;;;;;20.70;15.65;;;;;;;12.33;100.00;101281.94;10538590;28;20408;-62
2022/10/13 17:54:37;;;;;;;24.70;16.30;;;;;;;12.32;100.00;101289.84;10538334;28;20036;-64
2022/10/13 17:59:38;;;;;;;21.23;15.95;;;;;;;12.29;100.00;101285.59;10538596;28;20086;-63
2022/10/13 18:04:39;;;;;;;23.33;17.27;;;;;;;12.26;100.00;101280.50;10539116;28;20080;-64
2022/10/13 18:09:40;;;;;;;27.27;16.85;;;;;;;12.23;100.00;101280.63;10538203;28;20034;-63
2022/10/13 18:14:40;;;;;;;24.88;18.90;;;;;;;12.20;100.00;101285.97;10535680;28;20024;-63
2022/10/13 18:19:41;;;;;;;30.27;21.40;;;;;;;12.12;100.00;101285.47;10537755;28;20123;-63
2022/10/13 18:24:44;;;;;;;30.77;21.30;;;;;;;12.13;100.00;101284.53;10537747;28;20399;-63
2022/10/13 18:29:45;;;;;;;31.27;22.67;;;;;;;12.10;100.00;101288.13;10537427;28;20282;-65
2022/10/13 18:34:45;;;;;;;34.23;22.17;;;;;;;12.08;100.00;101297.81;10537096;28;20035;-66
2022/10/13 18:39:46;;;;;;;28.90;19.57;;;;;;;12.13;100.00;101310.69;10536203;28;20036;-64
2022/10/13 18:44:48;;;;;;;27.20;19.25;;;;;;;12.09;100.00;101309.97;10534885;28;20112;-63
2022/10/13 18:49:48;;;;;;;32.58;21.15;;;;;;;12.09;100.00;101305.63;10536704;28;20054;-64
2022/10/13 18:54:49;;;;;;;25.58;18.70;;;;;;;12.09;100.00;101315.22;10536623;28;20062;-61
2022/10/13 18:59:50;;;;;;;27.80;21.80;;;;;;;12.09;100.00;101321.31;10536489;28;20035;-63
2022/10/13 19:04:51;;;;;;;33.40;22.35;;;;;;;12.10;100.00;101309.94;10536434;28;20040;-63
2022/10/13 19:09:53;;;;;;;;;;;;;;;12.08;100.00;101309.13;10518498;28;20016;-73
2022/10/13 19:14:53;;;;;;;30.25;20.70;;;;;;;12.03;100.00;101311.06;10533964;28;20338;-73
2022/10/13 19:19:54;;;;;;;36.40;23.10;;;;;;;12.05;100.00;101314.44;10536063;28;20031;-74
2022/10/13 19:24:54;;;;;;;31.85;22.67;;;;;;;12.05;100.00;101318.84;10536475;28;20056;-75
2022/10/13 19:29:55;;;;;;;32.10;22.88;;;;;;;12.06;100.00;101320.56;10518387;28;20030;-73
2022/10/13 19:34:55;;;;;;;33.93;24.70;;;;;;;12.02;100.00;101319.81;10536050;28;20117;-74
2022/10/13 19:39:56;;;;;;;38.20;24.42;;;;;;;12.02;100.00;101322.44;10531867;28;20048;-73
2022/10/13 19:44:57;;;;;;;40.83;25.37;;;;;;;12.03;100.00;101323.28;10529097;28;20580;-74
2022/10/13 19:49:57;;;;;;;31.03;22.70;;;;;;;12.04;100.00;101315.38;10537337;28;20042;-76
2022/10/13 19:54:59;;;;;;;27.55;22.33;;;;;;;12.05;100.00;101314.44;10544137;28;20026;-75
2022/10/13 20:00:00;;;;;;;28.92;21.60;;;;;;;12.04;100.00;101320.59;10544132;28;20036;-71
2022/10/13 20:05:00;;;;;;;25.40;20.90;;;;;;;12.02;100.00;101335.53;10543603;28;20102;-73
2022/10/13 20:10:00;;;;;;;26.33;20.50;;;;;;;12.03;100.00;101325.88;10543548;28;20467;-71
2022/10/13 20:15:01;;;;;;;23.63;19.20;;;;;;;12.01;100.00;101325.94;10541072;28;20485;-76
2022/10/13 20:20:03;;;;;;;24.60;20.60;;;;;;;11.97;100.00;101327.84;10543167;28;20414;-74
2022/10/13 20:25:04;;;;;;;;;;;;;;;11.97;100.00;101329.59;10543871;28;20081;-64
2022/10/13 20:30:06;;;;;;;23.70;19.67;;;;;;;11.93;100.00;101331.50;10543786;28;20440;-63
2022/10/13 20:35:06;;;;;;;25.90;20.27;;;;;;;11.91;100.00;101337.72;10542527;28;20503;-64
2022/10/13 20:40:08;;;;;;;26.58;20.73;;;;;;;11.90;100.00;101334.22;10541878;28;20052;-64
2022/10/13 20:45:09;;;;;;;23.87;20.03;;;;;;;11.93;100.00;101338.50;10539621;28;20031;-64
2022/10/13 20:50:10;;;;;;;31.30;22.20;;;;;;;11.90;100.00;101336.84;10541875;28;20402;-65
2022/10/13 20:55:10;;;;;;;32.07;23.00;;;;;;;11.92;100.00;101339.41;10541641;28;20027;-63
2022/10/13 21:00:11;;;;;;;36.38;23.48;;;;;;;11.89;100.00;101344.75;10541272;28;20042;-64
2022/10/13 21:05:12;;;;;;;28.15;22.55;;;;;;;11.90;100.00;101344.69;10540527;28;20035;-64
2022/10/13 21:10:12;;;;;;;31.13;23.87;;;;;;;11.85;100.00;101351.88;10541001;28;20027;-65
2022/10/13 21:15:13;;;;;;;35.00;25.13;;;;;;;11.85;100.00;101350.09;10538625;28;20045;-64
2022/10/13 21:20:13;;;;;;;38.03;26.88;;;;;;;11.89;100.00;101339.53;10540499;28;20032;-64
2022/10/13 21:25:14;;;;;;;35.93;25.90;;;;;;;11.87;100.00;101342.19;10540446;28;20027;-66
2022/10/13 21:30:16;;;;;;;39.90;26.15;;;;;;;11.85;100.00;101339.63;10540304;28;20368;-64
2022/10/13 21:35:16;;;;;;;41.85;26.33;;;;;;;11.85;100.00;101333.59;10540010;28;20016;-66
2022/10/13 21:40:17;;;;;;;32.33;23.97;;;;;;;11.82;100.00;101333.69;10539683;28;20044;-66
2022/10/13 21:45:17;;;;;;;37.30;25.58;;;;;;;11.81;100.00;101329.38;10537337;28;20099;-65
2022/10/13 21:50:18;;;;;;;37.30;26.27;;;;;;;11.81;100.00;101337.22;10539430;28;20411;-64
2022/10/13 21:55:18;;;;;;;35.58;24.85;;;;;;;11.81;100.00;101332.00;10539098;28;20032;-63
2022/10/13 22:00:19;;;;;;;39.67;25.52;;;;;;;11.82;100.00;101318.88;10538962;28;20107;-64
2022/10/13 22:05:19;;;;;;;37.70;24.73;;;;;;;11.83;100.00;101320.56;10538885;28;20040;-64
2022/10/13 22:10:19;;;;;;;34.57;24.53;;;;;;;11.85;100.00;101317.88;10538532;28;20081;-65
2022/10/13 22:15:20;;;;;;;36.03;24.55;;;;;;;11.84;100.00;101311.78;10535218;28;20042;-65
2022/10/13 22:20:20;;;;;;;31.80;22.87;;;;;;;11.87;100.00;101304.75;10533890;28;20031;-65
2022/10/13 22:25:20;;;;;;;35.08;23.73;;;;;;;11.85;100.00;101299.59;10531628;28;20028;-63
2022/10/13 22:30:21;;;;;;;33.33;24.42;;;;;;;11.84;100.00;101296.09;10538063;28;20038;-64
2022/10/13 22:35:21;;;;;;;35.60;22.90;;;;;;;11.84;100.00;101295.28;10537749;28;20042;-64
2022/10/13 22:40:23;;;;;;;35.57;22.97;;;;;;;11.85;100.00;101305.66;10548059;28;20047;-65